PHMKPHNG

Guest
Details From PHMK - MOLOKAI
To PHNG - KANEOHE BAY MCAF
Flight Number -
Tags generated
Created
Modified
Stats Distance 42 nm / 78 km
Max Altitude 2,200 ft / 671 m
Waypoints 3
Social Downloads 3
Likes 0
Share VATSIM

Download

Looking for another format? Having issues loading an existing format? Contact us
Advertisement - Login to hide

Notes

Basic altitude profile: - Ascent Rate: 400ft/min - Ascent Speed: 90kts - Cruise Altitude: 3000ft - Cruise Speed: 115kts - Descent Rate: 400ft/min - Descent Speed: 80kts

Route

PHMK GRITL PHNG

ID Type Via Altitude Latitude Longitude Leg Dist Tot Dist Heading (true) Name
O PHMK APT - 0 ft / 0 m 21.15293˚ -157.09650˚ - 0 nm - MOLOKAI
GRITL FIX - 2,200 ft / 671 m 21.32768˚ -157.62336˚ 31 nm 31 nm 290° / 289° -
O PHNG APT - 0 ft / 0 m 21.45044˚ -157.76792˚ 10 nm 42 nm 312° / 312° KANEOHE BAY MCAF

Altitude Profile

Advertisement - Login to hide

PHMK

Details ICAO PHMK (MKK)
Name MOLOKAI
Region USA (Hawaii)
Timezone Pacific/Honolulu (UTC-10.0)
Stats Elevation 454 ft / 138 m (AMSL)
Location 21.152926° -157.096500°
Runways 2
Magnetic Variation 9.516° E

METAR

PHMK 111654Z 00000KT 10SM CLR 16/16 A3000 RMK AO2 SLP164 T01610156

Decode

TAF

PHMK 111136Z 1112/1212 VRB05KT P6SM FEW015 BKN040 FM112100 19009KT P6SM FEW025 SCT040 FM120600 18004KT P6SM FEW025 SCT040

Decode

Departure Runways

ID Width Length Bearing (true) Bearing (mag) Surface Threshold Offset Overrun Length
05 100 ft / 30 m 4,503 ft / 1,373 m 60.21° 50.69° Asphalt 0 ft / 0 m 0 ft / 0 m
17 100 ft / 30 m 3,130 ft / 954 m 179.90° 170.38° Asphalt 427 ft / 130 m 0 ft / 0 m
23 100 ft / 30 m 4,503 ft / 1,373 m 240.21° 230.69° Asphalt 0 ft / 0 m 0 ft / 0 m
35 100 ft / 30 m 3,130 ft / 954 m 359.90° 350.38° Asphalt 0 ft / 0 m 0 ft / 0 m

PHNG

Details ICAO PHNG (NGF)
Name KANEOHE BAY MCAF
Region USA (Hawaii)
Timezone Pacific/Honolulu (UTC-10.0)
Stats Elevation 22 ft / 7 m (AMSL)
Location 21.450444° -157.767919°
Runways 1
Magnetic Variation 9.504° E

METAR

PHNG 111704Z 00000KT 10SM CLR 22/20 A2994 RMK AO2 T02170200 $

Decode

TAF

TAF PHNG 1115/1215 23008KT 9999 BKN015 OVC070 QNH2993INS TEMPO 1115/1120 VRB05KT 6000 SHRA SCT020 BKN075 FM120800 VRB05KT 9999 BKN020 OVC075 QNH2998INS TEMPO 1209/1213 8000 -SHRA SCT025 BKN075 T25/1123Z T21/1213Z

Decode

Destination Runways

ID Width Length Bearing (true) Bearing (mag) Surface Threshold Offset Overrun Length
04 200 ft / 61 m 7,784 ft / 2,373 m 51.51° 42.01° Asphalt 0 ft / 0 m 0 ft / 0 m
22 200 ft / 61 m 7,784 ft / 2,373 m 231.51° 222.01° Asphalt 0 ft / 0 m 0 ft / 0 m